Time;durP1;ratioP1;P1;durP2;ratioP2;P2;SDS_P1;SDS_P2;PMS_P1;PMS_P2;Temp;Humidity;BMP_temperature;BMP_pressure;BME280_temperature;BME280_humidity;BME280_pressure;Samples;Min_cycle;Max_cycle;Signal;HPM_P1;HPM_P2
2023/10/03 00:01:17;;;;;;;35.20;14.68;;;;;;;;;;5114417;28;20462;-41
2023/10/03 00:03:43;;;;;;;43.83;14.67;;;;;;;;;;5114394;28;20023;-41
2023/10/03 00:06:09;;;;;;;40.28;14.65;;;;;;;;;;5114847;28;20258;-41
2023/10/03 00:08:34;;;;;;;40.13;14.65;;;;;;;;;;5095900;28;20015;-41
2023/10/03 00:10:59;;;;;;;40.73;15.70;;;;;;;;;;5113845;28;20071;-40
2023/10/03 00:13:25;;;;;;;39.42;14.13;;;;;;;;;;5114017;28;20365;-41
2023/10/03 00:15:51;;;;;;;42.08;14.82;;;;;;;;;;5113827;28;20149;-41
2023/10/03 00:18:16;;;;;;;40.85;15.90;;;;;;;;;;5113888;28;20016;-40
2023/10/03 00:20:41;;;;;;;38.28;14.75;;;;;;;;;;5114191;28;20024;-46
2023/10/03 00:23:07;;;;;;;37.25;14.45;;;;;;;;;;5113840;28;20023;-40
2023/10/03 00:25:32;;;;;;;38.55;15.40;;;;;;;;;;5114153;28;20076;-41
2023/10/03 00:28:00;;;;;;;43.23;15.37;;;;;;;;;;5114147;28;20011;-40
2023/10/03 00:30:26;;;;;;;42.95;15.05;;;;;;;;;;5114056;28;20320;-40
2023/10/03 00:32:52;;;;;;;38.80;14.63;;;;;;;;;;5113788;28;20095;-41
2023/10/03 00:35:19;;;;;;;40.65;15.07;;;;;;;;;;5113788;28;20012;-40
2023/10/03 00:37:46;;;;;;;37.55;14.27;;;;;;;;;;5113730;28;20458;-40
2023/10/03 00:40:17;;;;;;;50.85;15.63;;;;;;;;;;5113783;28;20079;-40
2023/10/03 00:42:46;;;;;;;46.25;15.32;;;;;;;;;;5114020;28;20023;-41
2023/10/03 00:45:11;;;;;;;45.42;14.90;;;;;;;;;;5113870;28;20020;-41
2023/10/03 00:47:37;;;;;;;41.97;15.30;;;;;;;;;;5113845;28;20016;-39
2023/10/03 00:50:04;;;;;;;48.88;16.50;;;;;;;;;;5113897;28;20269;-41
2023/10/03 00:52:30;;;;;;;40.47;15.13;;;;;;;;;;5113614;28;20539;-41
2023/10/03 00:54:58;;;;;;;44.65;15.85;;;;;;;;;;5113633;28;20476;-41
2023/10/03 00:57:23;;;;;;;46.25;15.57;;;;;;;;;;5113640;28;20477;-40
2023/10/03 00:59:50;;;;;;;43.33;15.63;;;;;;;;;;5113893;28;20020;-41
2023/10/03 01:02:15;;;;;;;42.88;15.73;;;;;;;;;;5113822;28;20026;-40
2023/10/03 01:04:40;;;;;;;45.07;15.20;;;;;;;;;;5113605;28;20416;-40
2023/10/03 01:07:07;;;;;;;43.47;15.60;;;;;;;;;;5113413;28;20257;-40
2023/10/03 01:09:33;;;;;;;38.88;15.52;;;;;;;;;;5113856;28;20035;-41
2023/10/03 01:11:58;;;;;;;42.92;15.88;;;;;;;;;;5113677;28;20023;-40
2023/10/03 01:14:25;;;;;;;43.75;15.32;;;;;;;;;;5113309;28;20012;-40
2023/10/03 01:16:51;;;;;;;40.72;14.88;;;;;;;;;;5113362;28;20016;-40
2023/10/03 01:19:25;;;;;;;43.47;14.95;;;;;;;;;;5113649;28;20071;-40
2023/10/03 01:21:50;;;;;;;41.80;15.25;;;;;;;;;;5115608;28;20026;-41
2023/10/03 01:24:24;;;;;;;40.53;14.75;;;;;;;;;;5117202;28;20012;-41
2023/10/03 01:26:52;;;;;;;42.00;15.55;;;;;;;;;;5117346;28;20039;-41
2023/10/03 01:29:17;;;;;;;42.03;15.27;;;;;;;;;;5117619;28;20015;-41
2023/10/03 01:31:42;;;;;;;39.55;14.85;;;;;;;;;;5117498;28;20434;-41
2023/10/03 01:34:08;;;;;;;40.70;14.65;;;;;;;;;;5117126;28;20026;-41
2023/10/03 01:36:33;;;;;;;40.80;14.48;;;;;;;;;;5116921;28;20027;-41
2023/10/03 01:38:58;;;;;;;41.73;14.23;;;;;;;;;;5117188;28;20110;-40
2023/10/03 01:41:23;;;;;;;36.50;14.57;;;;;;;;;;5116823;28;20600;-41
2023/10/03 01:43:49;;;;;;;38.27;13.97;;;;;;;;;;5117354;28;20069;-41
2023/10/03 01:46:17;;;;;;;36.08;14.02;;;;;;;;;;5116908;28;20028;-41
2023/10/03 01:48:42;;;;;;;39.92;14.40;;;;;;;;;;5116650;28;20047;-40
2023/10/03 01:51:08;;;;;;;36.85;13.38;;;;;;;;;;5116846;28;20023;-41
2023/10/03 01:53:34;;;;;;;36.17;13.95;;;;;;;;;;5116841;28;20351;-41
2023/10/03 01:56:00;;;;;;;39.25;14.13;;;;;;;;;;5116795;28;20012;-41
2023/10/03 01:58:25;;;;;;;35.47;13.65;;;;;;;;;;5116473;28;20023;-40
2023/10/03 02:00:51;;;;;;;38.80;13.30;;;;;;;;;;5116996;28;20149;-41
2023/10/03 02:03:18;;;;;;;39.13;13.13;;;;;;;;;;5116899;28;20016;-45
2023/10/03 02:05:44;;;;;;;38.50;14.48;;;;;;;;;;5117113;28;20396;-41
2023/10/03 02:08:16;;;;;;;35.42;13.32;;;;;;;;;;5116794;28;20030;-40
2023/10/03 02:10:43;;;;;;;38.73;13.17;;;;;;;;;;5116429;28;20028;-41
2023/10/03 02:13:12;;;;;;;39.67;14.02;;;;;;;;;;5097760;28;20027;-41
2023/10/03 02:15:39;;;;;;;36.40;13.40;;;;;;;;;;5116262;28;20045;-40
2023/10/03 02:18:05;;;;;;;35.63;13.35;;;;;;;;;;5116568;28;20020;-41
2023/10/03 02:20:31;;;;;;;34.92;13.00;;;;;;;;;;5098496;28;20016;-41
2023/10/03 02:22:57;;;;;;;35.63;14.30;;;;;;;;;;5116219;28;20012;-40
2023/10/03 02:25:28;;;;;;;35.67;13.88;;;;;;;;;;5116198;28;20018;-41
2023/10/03 02:27:54;;;;;;;42.08;14.20;;;;;;;;;;5115897;28;20012;-41
2023/10/03 02:30:23;;;;;;;39.40;13.93;;;;;;;;;;5115903;28;20497;-40
2023/10/03 02:32:49;;;;;;;35.80;13.35;;;;;;;;;;5115051;28;20028;-40
2023/10/03 02:35:14;;;;;;;42.28;14.05;;;;;;;;;;5115651;28;20095;-41
2023/10/03 02:37:39;;;;;;;34.23;12.93;;;;;;;;;;5116014;28;20024;-40
2023/10/03 02:40:07;;;;;;;38.90;14.10;;;;;;;;;;5115677;28;20016;-41
2023/10/03 02:42:32;;;;;;;38.80;13.23;;;;;;;;;;5116680;28;20358;-40
2023/10/03 02:44:58;;;;;;;36.80;14.13;;;;;;;;;;5115784;28;20012;-41
2023/10/03 02:47:23;;;;;;;35.92;14.18;;;;;;;;;;5115851;28;20026;-40
2023/10/03 02:49:49;;;;;;;35.33;13.40;;;;;;;;;;5115312;28;20052;-41
2023/10/03 02:52:14;;;;;;;39.28;13.70;;;;;;;;;;5115666;28;20345;-41
2023/10/03 02:54:40;;;;;;;34.30;12.17;;;;;;;;;;5115708;28;20020;-41
2023/10/03 02:57:05;;;;;;;39.03;13.30;;;;;;;;;;5115601;28;20765;-41
2023/10/03 02:59:31;;;;;;;38.17;12.37;;;;;;;;;;5115533;28;20054;-41
2023/10/03 03:01:56;;;;;;;35.95;13.23;;;;;;;;;;5115233;28;20015;-41
2023/10/03 03:04:23;;;;;;;41.25;12.70;;;;;;;;;;5096951;28;20031;-40
2023/10/03 03:06:50;;;;;;;38.88;12.40;;;;;;;;;;5115395;28;20377;-40
2023/10/03 03:09:23;;;;;;;34.22;12.93;;;;;;;;;;5115209;28;20020;-41
2023/10/03 03:11:48;;;;;;;31.10;12.00;;;;;;;;;;5115312;28;20395;-40
2023/10/03 03:14:14;;;;;;;32.42;12.10;;;;;;;;;;5115225;28;20023;-41
2023/10/03 03:16:40;;;;;;;36.70;12.90;;;;;;;;;;5115196;28;20016;-41
2023/10/03 03:19:05;;;;;;;32.40;12.48;;;;;;;;;;5115049;28;20476;-41
2023/10/03 03:21:33;;;;;;;30.63;11.53;;;;;;;;;;5114860;28;20019;-41
2023/10/03 03:24:00;;;;;;;32.38;11.68;;;;;;;;;;5115072;28;20265;-40
2023/10/03 03:26:39;;;;;;;27.10;10.52;;;;;;;;;;5115070;28;20023;-41
2023/10/03 03:29:31;;;;;;;25.33;10.18;;;;;;;;;;5114970;28;20024;-41
2023/10/03 03:31:57;;;;;;;32.33;9.85;;;;;;;;;;5114603;28;20034;-40
2023/10/03 03:34:22;;;;;;;32.03;10.35;;;;;;;;;;5114923;28;20019;-41
2023/10/03 03:36:50;;;;;;;30.23;9.87;;;;;;;;;;5114619;28;20416;-41
2023/10/03 03:39:15;;;;;;;31.10;10.70;;;;;;;;;;5115065;28;20489;-41
2023/10/03 03:41:42;;;;;;;27.65;9.88;;;;;;;;;;5114418;28;20107;-41
2023/10/03 03:44:13;;;;;;;29.73;9.95;;;;;;;;;;5113636;28;20031;-41
2023/10/03 03:46:40;;;;;;;31.33;9.30;;;;;;;;;;5114549;28;20374;-41
2023/10/03 03:49:06;;;;;;;25.70;9.07;;;;;;;;;;5114166;28;20043;-46
2023/10/03 03:51:31;;;;;;;21.48;6.78;;;;;;;;;;5114478;28;20073;-41
2023/10/03 03:53:59;;;;;;;18.53;5.90;;;;;;;;;;5114290;28;20088;-40
2023/10/03 03:56:24;;;;;;;23.40;6.63;;;;;;;;;;5114533;28;20238;-41
2023/10/03 03:58:49;;;;;;;19.67;6.43;;;;;;;;;;5114505;28;20046;-41
2023/10/03 04:01:17;;;;;;;23.70;6.40;;;;;;;;;;5114448;28;20254;-41
2023/10/03 04:03:43;;;;;;;23.40;7.22;;;;;;;;;;5114053;28;20024;-41
2023/10/03 04:06:09;;;;;;;26.77;6.60;;;;;;;;;;5114000;28;20153;-40
2023/10/03 04:08:35;;;;;;;21.15;6.32;;;;;;;;;;5114596;28;20023;-40
2023/10/03 04:11:01;;;;;;;22.50;6.75;;;;;;;;;;5114235;28;20031;-40
2023/10/03 04:13:26;;;;;;;30.88;7.18;;;;;;;;;;5114304;28;20049;-40
2023/10/03 04:15:53;;;;;;;26.15;6.93;;;;;;;;;;5113983;28;20016;-40
2023/10/03 04:18:18;;;;;;;27.92;6.82;;;;;;;;;;5114230;28;20047;-41
2023/10/03 04:20:47;;;;;;;19.27;6.38;;;;;;;;;;5114249;28;20039;-41
2023/10/03 04:23:13;;;;;;;28.83;6.43;;;;;;;;;;5114186;28;20019;-40
2023/10/03 04:25:39;;;;;;;20.38;6.18;;;;;;;;;;5114125;28;20374;-40
2023/10/03 04:28:05;;;;;;;23.35;6.18;;;;;;;;;;5114169;28;20032;-41
2023/10/03 04:30:30;;;;;;;23.65;6.15;;;;;;;;;;5114058;28;20023;-41
2023/10/03 04:32:57;;;;;;;19.50;5.88;;;;;;;;;;5113663;28;20454;-41
2023/10/03 04:35:23;;;;;;;23.80;6.28;;;;;;;;;;5112896;28;20019;-41
2023/10/03 04:37:57;;;;;;;22.40;6.20;;;;;;;;;;5113450;28;20016;-41
2023/10/03 04:40:24;;;;;;;21.27;6.05;;;;;;;;;;5113744;28;20054;-41
2023/10/03 04:42:49;;;;;;;24.40;6.20;;;;;;;;;;5095591;28;20504;-40
2023/10/03 04:45:15;;;;;;;27.08;6.35;;;;;;;;;;5114004;28;20028;-41
2023/10/03 04:47:45;;;;;;;22.88;5.80;;;;;;;;;;5113553;28;20019;-40
2023/10/03 04:50:11;;;;;;;27.25;6.25;;;;;;;;;;5113742;28;20027;-41
2023/10/03 04:52:37;;;;;;;22.35;5.68;;;;;;;;;;5113610;28;20031;-41
2023/10/03 04:55:02;;;;;;;21.48;5.55;;;;;;;;;;5113904;28;20454;-40
2023/10/03 04:57:28;;;;;;;22.67;6.00;;;;;;;;;;5117335;28;20015;-40
2023/10/03 04:59:56;;;;;;;26.75;5.72;;;;;;;;;;5117947;28;20020;-41
2023/10/03 05:02:21;;;;;;;26.35;6.00;;;;;;;;;;5099303;28;20024;-40
2023/10/03 05:04:47;;;;;;;16.63;4.93;;;;;;;;;;5117775;28;20027;-40
2023/10/03 05:07:12;;;;;;;18.13;5.40;;;;;;;;;;5117542;28;20011;-40
2023/10/03 05:09:37;;;;;;;18.13;5.00;;;;;;;;;;5117413;28;20034;-41
2023/10/03 05:12:04;;;;;;;19.63;5.43;;;;;;;;;;5117374;28;20016;-40
2023/10/03 05:14:30;;;;;;;15.05;4.88;;;;;;;;;;5117625;28;20474;-41
2023/10/03 05:16:58;;;;;;;15.95;4.75;;;;;;;;;;5117543;28;20018;-40
2023/10/03 05:19:24;;;;;;;18.25;5.30;;;;;;;;;;5117506;28;20024;-41
2023/10/03 05:21:49;;;;;;;19.45;4.90;;;;;;;;;;5117762;28;20103;-41
2023/10/03 05:24:15;;;;;;;16.90;4.90;;;;;;;;;;5117396;28;20511;-42
2023/10/03 05:26:41;;;;;;;17.98;5.90;;;;;;;;;;5117007;28;20090;-41
2023/10/03 05:29:07;;;;;;;16.00;4.97;;;;;;;;;;5117341;28;20047;-41
2023/10/03 05:31:32;;;;;;;16.38;4.85;;;;;;;;;;5116890;28;20452;-41
2023/10/03 05:33:57;;;;;;;15.37;4.80;;;;;;;;;;5117071;28;20022;-40
2023/10/03 05:36:23;;;;;;;15.88;4.57;;;;;;;;;;5116833;28;20482;-41
2023/10/03 05:38:48;;;;;;;16.58;4.40;;;;;;;;;;5117182;28;20106;-41
2023/10/03 05:41:23;;;;;;;18.45;4.50;;;;;;;;;;5116819;28;20069;-41
2023/10/03 05:43:48;;;;;;;9.55;3.80;;;;;;;;;;5117116;28;20020;-41
2023/10/03 05:46:13;;;;;;;15.40;4.30;;;;;;;;;;5098465;28;20072;-40
2023/10/03 05:48:38;;;;;;;12.37;3.40;;;;;;;;;;5116510;28;20130;-40
2023/10/03 05:51:05;;;;;;;19.03;4.00;;;;;;;;;;5116550;28;20313;-40
2023/10/03 05:53:30;;;;;;;10.82;3.47;;;;;;;;;;5116529;28;20269;-40
2023/10/03 05:55:56;;;;;;;13.23;3.65;;;;;;;;;;5116530;28;20061;-41
2023/10/03 05:58:21;;;;;;;14.48;3.88;;;;;;;;;;5116835;28;20068;-40
2023/10/03 06:00:46;;;;;;;13.45;3.58;;;;;;;;;;5116400;28;20016;-40
2023/10/03 06:03:12;;;;;;;13.07;3.60;;;;;;;;;;5116326;28;20008;-41
2023/10/03 06:05:37;;;;;;;15.77;3.80;;;;;;;;;;5117151;28;20090;-40
2023/10/03 06:08:02;;;;;;;11.27;3.87;;;;;;;;;;5115688;28;20256;-41
2023/10/03 06:10:29;;;;;;;11.77;3.80;;;;;;;;;;5098764;28;20261;-41
2023/10/03 06:12:54;;;;;;;13.70;3.95;;;;;;;;;;5116349;28;20023;-41
2023/10/03 06:15:20;;;;;;;13.93;3.85;;;;;;;;;;5116642;28;20035;-41
2023/10/03 06:17:45;;;;;;;13.68;4.20;;;;;;;;;;5116393;28;20404;-41
2023/10/03 06:20:14;;;;;;;13.73;3.90;;;;;;;;;;5116062;28;20016;-40
2023/10/03 06:22:39;;;;;;;18.55;4.28;;;;;;;;;;5116199;28;20589;-46
2023/10/03 06:25:05;;;;;;;15.07;3.75;;;;;;;;;;5116496;28;20077;-41
2023/10/03 06:27:31;;;;;;;14.13;3.92;;;;;;;;;;5115932;28;20026;-41
2023/10/03 06:29:56;;;;;;;16.50;3.75;;;;;;;;;;5115854;28;20027;-39
2023/10/03 06:32:21;;;;;;;18.53;3.87;;;;;;;;;;5116383;28;20103;-39
2023/10/03 06:34:47;;;;;;;12.17;3.47;;;;;;;;;;5116072;28;20073;-40
2023/10/03 06:37:12;;;;;;;12.63;3.40;;;;;;;;;;5115670;28;20253;-38
2023/10/03 06:39:37;;;;;;;15.30;3.50;;;;;;;;;;5116159;28;20015;-39
2023/10/03 06:42:02;;;;;;;8.90;3.13;;;;;;;;;;5115907;28;20166;-40
2023/10/03 06:44:28;;;;;;;11.60;2.50;;;;;;;;;;5115823;28;20020;-40
2023/10/03 06:46:53;;;;;;;11.23;2.80;;;;;;;;;;5115462;28;20020;-40
2023/10/03 06:49:22;;;;;;;10.07;2.53;;;;;;;;;;5113826;28;20054;-40
2023/10/03 06:51:48;;;;;;;11.52;2.60;;;;;;;;;;5113242;28;20024;-40
2023/10/03 06:54:13;;;;;;;13.48;2.50;;;;;;;;;;5112987;28;20042;-41
2023/10/03 06:56:40;;;;;;;6.88;2.35;;;;;;;;;;5113168;28;20026;-42
2023/10/03 06:59:08;;;;;;;8.32;2.83;;;;;;;;;;5113343;28;20054;-40
2023/10/03 07:01:33;;;;;;;9.20;2.30;;;;;;;;;;5113066;28;20023;-40
2023/10/03 07:04:00;;;;;;;10.43;2.60;;;;;;;;;;5114064;28;20092;-39
2023/10/03 07:06:25;;;;;;;10.75;2.90;;;;;;;;;;5115410;28;20373;-40
2023/10/03 07:08:51;;;;;;;7.13;2.70;;;;;;;;;;5115408;28;20069;-39
2023/10/03 07:11:17;;;;;;;11.07;2.95;;;;;;;;;;5115212;28;20608;-39
2023/10/03 07:13:43;;;;;;;7.90;2.60;;;;;;;;;;5115243;28;20107;-39
2023/10/03 07:16:09;;;;;;;14.88;3.08;;;;;;;;;;5115074;28;20031;-40
2023/10/03 07:18:35;;;;;;;13.50;3.33;;;;;;;;;;5114641;28;20016;-40
2023/10/03 07:21:00;;;;;;;8.73;2.85;;;;;;;;;;5115080;28;20386;-39
2023/10/03 07:23:25;;;;;;;13.00;3.00;;;;;;;;;;5114898;28;20019;-40
2023/10/03 07:25:51;;;;;;;18.17;3.20;;;;;;;;;;5115354;28;20069;-40
2023/10/03 07:28:16;;;;;;;14.98;3.13;;;;;;;;;;5114969;28;20759;-39
2023/10/03 07:30:42;;;;;;;15.23;2.85;;;;;;;;;;5115089;28;20031;-40
2023/10/03 07:33:07;;;;;;;10.18;2.50;;;;;;;;;;5114567;28;20073;-40
2023/10/03 07:35:34;;;;;;;10.90;2.20;;;;;;;;;;5113605;28;20047;-40
2023/10/03 07:38:00;;;;;;;11.07;1.98;;;;;;;;;;5112501;28;20016;-40
2023/10/03 07:40:27;;;;;;;7.22;1.65;;;;;;;;;;5112562;28;20020;-40
2023/10/03 07:42:52;;;;;;;7.22;1.80;;;;;;;;;;5113857;28;20028;-40
2023/10/03 07:45:18;;;;;;;7.63;1.67;;;;;;;;;;5113753;28;20370;-40
2023/10/03 07:47:44;;;;;;;5.75;1.70;;;;;;;;;;5113087;28;20066;-39
2023/10/03 07:50:11;;;;;;;11.30;1.70;;;;;;;;;;5114235;28;20510;-40
2023/10/03 07:52:36;;;;;;;6.88;1.65;;;;;;;;;;5114326;28;20072;-40
2023/10/03 07:55:03;;;;;;;7.03;1.98;;;;;;;;;;5114275;28;20404;-40
2023/10/03 07:57:28;;;;;;;9.85;1.67;;;;;;;;;;5096605;28;20024;-40
2023/10/03 07:59:54;;;;;;;14.17;2.00;;;;;;;;;;5114367;28;20026;-40
2023/10/03 08:02:26;;;;;;;6.60;1.92;;;;;;;;;;5113926;28;20257;-40
2023/10/03 08:04:52;;;;;;;9.45;2.08;;;;;;;;;;5114083;28;20102;-40
2023/10/03 08:07:24;;;;;;;11.15;1.90;;;;;;;;;;5096148;28;20024;-40
2023/10/03 08:09:49;;;;;;;8.35;1.90;;;;;;;;;;5114045;28;20055;-40
2023/10/03 08:12:23;;;;;;;21.07;2.30;;;;;;;;;;5114229;28;20100;-40
2023/10/03 08:14:51;;;;;;;8.45;1.95;;;;;;;;;;5113836;28;20007;-40
2023/10/03 08:17:17;;;;;;;5.25;1.60;;;;;;;;;;5114109;28;20012;-40
2023/10/03 08:19:45;;;;;;;11.63;1.83;;;;;;;;;;5113978;28;20476;-40
2023/10/03 08:22:12;;;;;;;6.53;1.83;;;;;;;;;;5113852;28;20020;-40
2023/10/03 08:24:37;;;;;;;8.15;1.75;;;;;;;;;;5114240;28;20020;-40
2023/10/03 08:27:03;;;;;;;6.07;1.37;;;;;;;;;;5113743;28;20065;-40
2023/10/03 08:29:29;;;;;;;9.45;1.70;;;;;;;;;;5114557;28;20119;-40
2023/10/03 08:31:58;;;;;;;6.97;1.60;;;;;;;;;;5116684;28;20461;-41
2023/10/03 08:34:27;;;;;;;10.55;1.60;;;;;;;;;;5117968;28;20031;-40
2023/10/03 08:36:58;;;;;;;10.63;1.77;;;;;;;;;;5118028;28;20008;-40
2023/10/03 08:39:24;;;;;;;8.45;1.75;;;;;;;;;;5118202;28;20020;-40
2023/10/03 08:41:59;;;;;;;5.38;1.10;;;;;;;;;;5118275;28;20469;-40
2023/10/03 08:44:25;;;;;;;7.57;1.30;;;;;;;;;;5117920;28;20034;-40
2023/10/03 08:46:55;;;;;;;6.15;1.10;;;;;;;;;;5118131;28;20032;-40
2023/10/03 08:49:24;;;;;;;5.93;1.48;;;;;;;;;;5117738;28;20048;-40
2023/10/03 08:51:51;;;;;;;3.20;1.10;;;;;;;;;;5118166;28;20019;-40
2023/10/03 08:54:17;;;;;;;7.68;1.08;;;;;;;;;;5117590;28;20024;-40
2023/10/03 08:56:44;;;;;;;3.65;0.70;;;;;;;;;;5117891;28;20026;-40
2023/10/03 08:59:09;;;;;;;4.65;0.95;;;;;;;;;;5117901;28;20039;-40
2023/10/03 09:01:38;;;;;;;5.82;1.48;;;;;;;;;;5117307;28;20027;-40
2023/10/03 09:04:05;;;;;;;5.07;1.23;;;;;;;;;;5118055;28;20131;-40
2023/10/03 09:06:38;;;;;;;4.30;1.17;;;;;;;;;;5117485;28;20058;-40
2023/10/03 09:09:10;;;;;;;6.80;1.10;;;;;;;;;;5117375;28;20028;-40
2023/10/03 09:11:39;;;;;;;5.70;1.05;;;;;;;;;;5117456;28;20019;-40
2023/10/03 09:14:08;;;;;;;4.85;1.15;;;;;;;;;;5117236;28;20034;-40
2023/10/03 09:16:39;;;;;;;7.80;1.50;;;;;;;;;;5117292;28;20020;-40
2023/10/03 09:19:04;;;;;;;4.35;1.08;;;;;;;;;;5117200;28;20031;-40
2023/10/03 09:21:30;;;;;;;6.80;1.38;;;;;;;;;;5117728;28;20020;-40
2023/10/03 09:24:01;;;;;;;5.70;1.30;;;;;;;;;;5117727;28;20020;-40
2023/10/03 09:26:27;;;;;;;7.28;1.27;;;;;;;;;;5117363;28;20019;-39
2023/10/03 09:28:52;;;;;;;3.30;1.20;;;;;;;;;;5117023;28;20022;-40
2023/10/03 09:31:22;;;;;;;5.43;1.40;;;;;;;;;;5116940;28;20020;-40
2023/10/03 09:33:47;;;;;;;4.60;1.13;;;;;;;;;;5117234;28;20253;-40
2023/10/03 09:36:12;;;;;;;4.82;1.23;;;;;;;;;;5117131;28;20347;-40
2023/10/03 09:38:45;;;;;;;5.83;1.40;;;;;;;;;;5117405;28;20068;-41
2023/10/03 09:41:16;;;;;;;5.45;1.20;;;;;;;;;;5117118;28;20027;-40
2023/10/03 09:43:44;;;;;;;4.60;1.45;;;;;;;;;;5116645;28;20019;-40
2023/10/03 09:46:10;;;;;;;6.20;1.58;;;;;;;;;;5116982;28;20118;-40
2023/10/03 09:48:37;;;;;;;4.60;1.45;;;;;;;;;;5116865;28;20383;-39
2023/10/03 09:51:05;;;;;;;5.78;1.30;;;;;;;;;;5116542;28;20023;-40
2023/10/03 09:53:31;;;;;;;5.43;1.40;;;;;;;;;;5116748;28;20020;-40
2023/10/03 09:55:56;;;;;;;5.10;1.30;;;;;;;;;;5116462;28;20455;-40
2023/10/03 09:58:24;;;;;;;7.80;1.52;;;;;;;;;;5116471;28;20016;-40
2023/10/03 10:00:53;;;;;;;7.95;1.35;;;;;;;;;;5116720;28;20012;-40
2023/10/03 10:03:26;;;;;;;4.38;1.10;;;;;;;;;;5116691;28;20084;-40
2023/10/03 10:06:24;;;;;;;5.82;1.27;;;;;;;;;;5116895;28;20019;-40
2023/10/03 10:08:58;;;;;;;6.15;1.30;;;;;;;;;;5116138;28;20032;-41
2023/10/03 10:11:26;;;;;;;5.07;1.17;;;;;;;;;;5116368;28;20466;-40
2023/10/03 10:14:01;;;;;;;5.45;1.20;;;;;;;;;;5116107;28;20443;-40
2023/10/03 10:16:28;;;;;;;4.93;1.25;;;;;;;;;;5116379;28;20370;-40
2023/10/03 10:18:54;;;;;;;5.85;1.75;;;;;;;;;;5116405;28;20015;-40
2023/10/03 10:21:19;;;;;;;6.90;1.40;;;;;;;;;;5116288;28;20019;-40
2023/10/03 10:24:03;;;;;;;8.70;1.40;;;;;;;;;;5116503;28;20064;-39
2023/10/03 10:26:30;;;;;;;7.03;1.30;;;;;;;;;;5116149;28;20028;-39
2023/10/03 10:29:03;;;;;;;7.95;1.58;;;;;;;;;;5116160;28;20020;-39
2023/10/03 10:31:31;;;;;;;;;;;;;;;;;;5116203;28;20049;-40
2023/10/03 10:34:15;;;;;;;7.70;1.60;;;;;;;;;;5116086;28;19904;-39
2023/10/03 10:36:54;;;;;;;6.50;1.50;;;;;;;;;;5116360;28;20019;-40
2023/10/03 10:39:23;;;;;;;6.85;1.48;;;;;;;;;;5115960;28;20073;-40
2023/10/03 10:42:06;;;;;;;8.20;1.60;;;;;;;;;;5115512;28;20011;-39
2023/10/03 10:44:32;;;;;;;7.10;1.60;;;;;;;;;;5116140;28;20096;-39
2023/10/03 10:47:04;;;;;;;7.03;1.50;;;;;;;;;;5115571;28;20461;-39
2023/10/03 10:49:30;;;;;;;9.20;1.48;;;;;;;;;;5115373;28;20288;-39
2023/10/03 10:51:57;;;;;;;6.30;1.60;;;;;;;;;;5115543;28;20023;-40
2023/10/03 10:54:25;;;;;;;16.13;2.17;;;;;;;;;;5115055;28;20019;-39
2023/10/03 10:57:04;;;;;;;7.18;1.65;;;;;;;;;;5115358;28;20016;-39
2023/10/03 10:59:31;;;;;;;8.18;1.80;;;;;;;;;;5115281;28;20023;-40
2023/10/03 11:01:57;;;;;;;7.32;1.90;;;;;;;;;;5115312;28;20459;-40
2023/10/03 11:04:27;;;;;;;9.05;2.05;;;;;;;;;;5113281;28;20407;-40
2023/10/03 11:06:52;;;;;;;8.77;1.85;;;;;;;;;;5115170;28;20032;-39
2023/10/03 11:09:22;;;;;;;7.90;2.42;;;;;;;;;;5115272;28;20107;-40
2023/10/03 11:11:49;;;;;;;8.80;2.13;;;;;;;;;;5115216;28;20072;-40
2023/10/03 11:14:28;;;;;;;7.68;2.00;;;;;;;;;;5114863;28;20015;-40
2023/10/03 11:16:55;;;;;;;12.45;2.08;;;;;;;;;;5115168;28;20012;-40
2023/10/03 11:19:20;;;;;;;10.10;1.98;;;;;;;;;;5096606;28;20027;-40
2023/10/03 11:21:45;;;;;;;9.40;2.10;;;;;;;;;;5115003;28;20016;-40
2023/10/03 11:24:10;;;;;;;10.80;2.40;;;;;;;;;;5096443;28;20015;-40
2023/10/03 11:26:46;;;;;;;9.47;1.90;;;;;;;;;;5115323;28;20021;-40
2023/10/03 11:29:12;;;;;;;11.57;2.63;;;;;;;;;;5115304;28;20257;-40
2023/10/03 11:31:44;;;;;;;10.20;2.30;;;;;;;;;;5114836;28;20092;-39
2023/10/03 11:34:09;;;;;;;10.17;2.23;;;;;;;;;;5114654;28;20011;-40
2023/10/03 11:36:44;;;;;;;9.95;2.75;;;;;;;;;;5114624;28;20024;-40
2023/10/03 11:39:13;;;;;;;8.45;2.42;;;;;;;;;;5114923;28;20046;-40
2023/10/03 11:41:38;;;;;;;8.43;2.20;;;;;;;;;;5114691;28;20016;-41
2023/10/03 11:44:05;;;;;;;12.80;2.80;;;;;;;;;;5114337;28;20069;-40
2023/10/03 11:46:36;;;;;;;8.55;2.42;;;;;;;;;;5113428;28;20072;-39
2023/10/03 11:49:03;;;;;;;11.20;2.65;;;;;;;;;;5114258;28;20047;-40
2023/10/03 11:51:29;;;;;;;11.82;2.22;;;;;;;;;;5114205;28;20501;-40
2023/10/03 11:53:54;;;;;;;8.48;2.30;;;;;;;;;;5114049;28;20043;-40
2023/10/03 11:56:20;;;;;;;8.37;2.13;;;;;;;;;;5114396;28;20534;-40
2023/10/03 11:58:45;;;;;;;12.25;2.45;;;;;;;;;;5114118;28;20306;-40
2023/10/03 12:01:10;;;;;;;9.52;2.33;;;;;;;;;;5114221;28;20015;-40
2023/10/03 12:03:37;;;;;;;9.05;2.38;;;;;;;;;;5113495;28;20023;-40
2023/10/03 12:06:04;;;;;;;6.20;2.10;;;;;;;;;;5113534;28;20069;-40
2023/10/03 12:08:31;;;;;;;12.27;2.78;;;;;;;;;;5114701;28;20486;-40
2023/10/03 12:10:56;;;;;;;12.00;2.92;;;;;;;;;;5114244;28;20027;-40
2023/10/03 12:13:21;;;;;;;9.02;2.42;;;;;;;;;;5114037;28;20016;-40
2023/10/03 12:15:47;;;;;;;12.33;2.50;;;;;;;;;;5113973;28;20041;-40
2023/10/03 12:18:15;;;;;;;9.77;2.28;;;;;;;;;;5114182;28;20281;-40
2023/10/03 12:20:41;;;;;;;13.00;2.40;;;;;;;;;;5114177;28;20019;-40
2023/10/03 12:23:07;;;;;;;10.50;2.40;;;;;;;;;;5114148;28;20023;-40
2023/10/03 12:25:32;;;;;;;10.75;2.70;;;;;;;;;;5113785;28;20023;-40
2023/10/03 12:27:57;;;;;;;10.00;2.47;;;;;;;;;;5113837;28;20023;-40
2023/10/03 12:30:23;;;;;;;10.05;3.00;;;;;;;;;;5113645;28;20062;-40
2023/10/03 12:32:49;;;;;;;12.93;2.90;;;;;;;;;;5113971;28;20024;-41
2023/10/03 12:35:15;;;;;;;11.02;2.83;;;;;;;;;;5114460;28;20092;-40
2023/10/03 12:37:41;;;;;;;9.75;2.28;;;;;;;;;;5113900;28;20066;-40
2023/10/03 12:40:15;;;;;;;11.73;2.70;;;;;;;;;;5114008;28;20015;-40
2023/10/03 12:42:41;;;;;;;15.15;2.78;;;;;;;;;;5113528;28;20023;-41
2023/10/03 12:45:07;;;;;;;12.57;2.40;;;;;;;;;;5113733;28;20015;-39
2023/10/03 12:47:35;;;;;;;8.13;2.30;;;;;;;;;;5113533;28;20377;-39
2023/10/03 12:50:00;;;;;;;10.85;2.75;;;;;;;;;;5113655;28;20038;-40
2023/10/03 12:52:28;;;;;;;8.43;2.35;;;;;;;;;;5113610;28;20442;-41
2023/10/03 12:54:54;;;;;;;6.90;2.20;;;;;;;;;;5113565;28;20023;-41
2023/10/03 12:57:19;;;;;;;4.95;2.03;;;;;;;;;;5113267;28;20012;-41
2023/10/03 12:59:44;;;;;;;10.90;2.50;;;;;;;;;;5112864;28;20019;-40
2023/10/03 13:02:12;;;;;;;8.52;2.33;;;;;;;;;;5113113;28;20057;-40
2023/10/03 13:04:37;;;;;;;9.75;2.30;;;;;;;;;;5112991;28;20429;-41
2023/10/03 13:07:03;;;;;;;9.00;2.30;;;;;;;;;;5112955;28;20099;-40
2023/10/03 13:09:29;;;;;;;10.40;2.50;;;;;;;;;;5112587;28;20269;-40
2023/10/03 13:11:54;;;;;;;9.52;2.00;;;;;;;;;;5113201;28;20478;-41
2023/10/03 13:14:19;;;;;;;10.50;2.33;;;;;;;;;;5113139;28;20041;-41
2023/10/03 13:16:44;;;;;;;10.10;2.45;;;;;;;;;;5113925;28;20250;-41
2023/10/03 13:19:10;;;;;;;7.87;2.03;;;;;;;;;;5117460;28;20063;-40
2023/10/03 13:21:36;;;;;;;10.93;2.13;;;;;;;;;;5117242;28;20608;-41
2023/10/03 13:24:02;;;;;;;4.55;1.83;;;;;;;;;;5117338;28;20015;-40
2023/10/03 13:26:28;;;;;;;11.65;2.60;;;;;;;;;;5098554;28;20112;-40
2023/10/03 13:28:53;;;;;;;12.80;3.97;;;;;;;;;;5117348;28;20102;-40
2023/10/03 13:31:18;;;;;;;10.20;3.00;;;;;;;;;;5116732;28;20096;-40
2023/10/03 13:33:43;;;;;;;7.73;2.40;;;;;;;;;;5116786;28;20334;-40
2023/10/03 13:36:08;;;;;;;3.92;2.00;;;;;;;;;;5116726;28;20076;-39
2023/10/03 13:38:34;;;;;;;6.87;1.93;;;;;;;;;;5116596;28;20099;-40
2023/10/03 13:40:59;;;;;;;6.97;2.20;;;;;;;;;;5116417;28;20069;-40
2023/10/03 13:43:27;;;;;;;6.93;2.10;;;;;;;;;;5116716;28;20012;-40
2023/10/03 13:45:55;;;;;;;9.18;2.75;;;;;;;;;;5116876;28;20492;-40
2023/10/03 13:48:21;;;;;;;11.02;2.40;;;;;;;;;;5116523;28;20080;-39
2023/10/03 13:50:46;;;;;;;8.13;2.50;;;;;;;;;;5116687;28;20374;-40
2023/10/03 13:53:13;;;;;;;6.32;2.40;;;;;;;;;;5116303;28;20023;-40
2023/10/03 13:55:39;;;;;;;5.55;2.10;;;;;;;;;;5116583;28;20022;-40
2023/10/03 13:58:04;;;;;;;10.18;2.65;;;;;;;;;;5116174;28;20011;-40
2023/10/03 14:00:35;;;;;;;14.02;2.45;;;;;;;;;;5116888;28;20061;-40
2023/10/03 14:03:05;;;;;;;5.72;2.08;;;;;;;;;;5116435;28;20043;-41
2023/10/03 14:05:31;;;;;;;10.80;2.20;;;;;;;;;;5116162;28;20043;-40
2023/10/03 14:07:57;;;;;;;11.57;2.58;;;;;;;;;;5116358;28;20489;-41
2023/10/03 14:10:23;;;;;;;10.27;2.50;;;;;;;;;;5115997;28;20095;-41
2023/10/03 14:12:48;;;;;;;13.25;2.40;;;;;;;;;;5115741;28;20024;-40
2023/10/03 14:15:14;;;;;;;10.35;2.35;;;;;;;;;;5115827;28;20043;-41
2023/10/03 14:17:40;;;;;;;10.25;2.38;;;;;;;;;;5115734;28;20016;-41
2023/10/03 14:20:09;;;;;;;13.87;2.43;;;;;;;;;;5115416;28;20374;-41
2023/10/03 14:22:36;;;;;;;8.27;2.20;;;;;;;;;;5115305;28;20288;-41
2023/10/03 14:25:01;;;;;;;10.35;2.40;;;;;;;;;;5115535;28;20466;-41
2023/10/03 14:27:26;;;;;;;8.35;2.50;;;;;;;;;;5115557;28;20076;-41
2023/10/03 14:29:52;;;;;;;7.73;2.00;;;;;;;;;;5114244;28;20015;-41